Time;durP1;ratioP1;P1;durP2;ratioP2;P2;SDS_P1;SDS_P2;PMS_P1;PMS_P2;Temp;Humidity;BMP_temperature;BMP_pressure;BME280_temperature;BME280_humidity;BME280_pressure;Samples;Min_cycle;Max_cycle;Signal;HPM_P1;HPM_P2
2022/02/12 00:04:02;;;;;;;0.10;0.10;;;;;;;-1.68;100.00;103282.00;10375544;28;20473;-69
2022/02/12 00:09:02;;;;;;;0.13;0.13;;;;;;;-1.68;100.00;103277.66;10370707;28;20663;-69
2022/02/12 00:14:02;;;;;;;0.10;0.10;;;;;;;-1.70;100.00;103295.09;10428852;22;20045;-67
2022/02/12 00:19:03;;;;;;;0.10;0.10;;;;;;;-1.75;100.00;103282.97;10443054;28;20029;-67
2022/02/12 00:24:03;;;;;;;0.00;0.00;;;;;;;-1.76;100.00;103286.47;10416859;28;20645;-66
2022/02/12 00:29:04;;;;;;;0.10;0.10;;;;;;;-1.77;100.00;103287.38;10440609;28;20337;-67
2022/02/12 00:34:04;;;;;;;0.10;0.10;;;;;;;-1.79;100.00;103294.34;10414142;28;20017;-66
2022/02/12 00:39:05;;;;;;;0.00;0.00;;;;;;;-1.77;100.00;103287.38;10410320;28;20021;-67
2022/02/12 00:44:05;;;;;;;0.10;0.10;;;;;;;-1.76;100.00;103287.31;10442809;28;20769;-67
2022/02/12 00:49:06;;;;;;;0.00;0.00;;;;;;;-1.76;100.00;103278.63;10410215;28;20017;-67
2022/02/12 00:54:06;;;;;;;0.10;0.10;;;;;;;-1.80;100.00;103282.16;10432044;28;20078;-66
2022/02/12 00:59:06;;;;;;;0.00;0.00;;;;;;;-1.86;100.00;103289.19;10448315;28;20028;-67
2022/02/12 01:04:07;;;;;;;0.00;0.00;;;;;;;-1.92;100.00;103283.16;10425674;28;20025;-66
2022/02/12 01:09:07;;;;;;;0.10;0.10;;;;;;;-1.99;100.00;103277.16;10444950;28;20040;-66
2022/02/12 01:14:07;;;;;;;0.10;0.10;;;;;;;-2.03;100.00;103279.84;10439269;28;20570;-66
2022/02/12 01:19:08;;;;;;;0.10;0.10;;;;;;;-2.00;100.00;103280.66;10430712;28;20039;-66
2022/02/12 01:24:08;;;;;;;0.10;0.10;;;;;;;-2.01;100.00;103291.09;10408872;28;20369;-66
2022/02/12 01:29:09;;;;;;;0.15;0.15;;;;;;;-2.01;100.00;103298.94;10411033;28;20104;-66
2022/02/12 01:34:09;;;;;;;0.10;0.10;;;;;;;-2.02;100.00;103286.78;10413555;28;20017;-66
2022/02/12 01:39:09;;;;;;;0.10;0.10;;;;;;;-1.99;100.00;103290.22;10419913;28;20017;-66
2022/02/12 01:44:10;;;;;;;0.10;0.10;;;;;;;-2.00;100.00;103283.28;10449321;28;20047;-67
2022/02/12 01:49:11;;;;;;;0.08;0.08;;;;;;;-1.93;100.00;103284.91;10421652;28;20272;-67
2022/02/12 01:54:12;;;;;;;0.10;0.10;;;;;;;-1.87;100.00;103274.38;10423278;28;20473;-66
2022/02/12 01:59:13;;;;;;;0.10;0.10;;;;;;;-1.74;100.00;103277.72;10413959;28;20022;-66
2022/02/12 02:04:13;;;;;;;0.10;0.10;;;;;;;-1.65;100.00;103267.16;10412747;28;20519;-67
2022/02/12 02:09:15;;;;;;;0.10;0.10;;;;;;;-1.60;100.00;103267.06;10414268;28;20029;-67
2022/02/12 02:14:16;;;;;;;0.00;0.00;;;;;;;-1.56;100.00;103255.72;10410230;28;20025;-67
2022/02/12 02:19:16;;;;;;;0.10;0.10;;;;;;;-1.48;100.00;103248.63;10430727;28;20046;-66
2022/02/12 02:24:17;;;;;;;0.10;0.10;;;;;;;-1.40;100.00;103246.78;10417292;28;20099;-66
2022/02/12 02:29:18;;;;;;;0.10;0.10;;;;;;;-1.29;100.00;103254.44;10426430;28;20389;-67
2022/02/12 02:34:18;;;;;;;0.07;0.07;;;;;;;-1.23;100.00;103240.41;10412327;28;20025;-67
2022/02/12 02:39:18;;;;;;;0.05;0.05;;;;;;;-1.18;100.00;103233.34;10406056;28;20264;-67
2022/02/12 02:44:19;;;;;;;0.00;0.00;;;;;;;-1.22;100.00;103223.81;10407041;28;20025;-67
2022/02/12 02:49:20;;;;;;;0.00;0.00;;;;;;;-1.32;100.00;103222.25;10407083;28;20116;-67
2022/02/12 02:59:40;;;;;;;0.00;0.00;;;;;;;-1.57;100.00;103214.78;10418682;28;20025;-67
2022/02/12 03:04:40;;;;;;;0.00;0.00;;;;;;;-1.67;100.00;103206.19;10417649;28;20029;-66
2022/02/12 03:09:41;;;;;;;0.10;0.10;;;;;;;-1.78;100.00;103207.22;10414015;28;20032;-66
2022/02/12 03:14:41;;;;;;;0.00;0.00;;;;;;;-1.87;100.00;103203.84;10413855;28;20117;-66
2022/02/12 03:19:41;;;;;;;0.03;0.03;;;;;;;-1.96;100.00;103200.50;10431616;28;20027;-66
2022/02/12 03:24:42;;;;;;;0.10;0.10;;;;;;;-2.05;100.00;103189.28;10420389;28;20507;-66
2022/02/12 03:29:42;;;;;;;0.10;0.10;;;;;;;-2.12;100.00;103186.81;10417669;28;20569;-66
2022/02/12 03:34:43;;;;;;;0.10;0.10;;;;;;;-2.17;100.00;103188.59;10431557;28;20264;-66
2022/02/12 03:39:43;;;;;;;0.10;0.10;;;;;;;-2.15;100.00;103194.63;10450357;28;20279;-66
2022/02/12 03:44:44;;;;;;;0.00;0.00;;;;;;;-2.14;100.00;103188.56;10453519;28;20388;-66
2022/02/12 03:49:44;;;;;;;0.00;0.00;;;;;;;-2.05;100.00;103178.00;10429685;28;20087;-66
2022/02/12 03:54:44;;;;;;;0.05;0.05;;;;;;;-1.96;100.00;103175.25;10412305;28;20013;-66
2022/02/12 03:59:45;;;;;;;0.10;0.10;;;;;;;-1.95;100.00;103174.38;10422230;28;20017;-66
2022/02/12 04:04:45;;;;;;;0.10;0.10;;;;;;;-1.99;100.00;103177.03;10436361;28;20025;-67
2022/02/12 04:09:45;;;;;;;0.03;0.03;;;;;;;-2.04;100.00;103169.25;10425438;28;20021;-67
2022/02/12 04:14:45;;;;;;;0.10;0.10;;;;;;;-2.09;100.00;103168.47;10414450;28;20260;-67
2022/02/12 04:19:46;;;;;;;0.10;0.10;;;;;;;-2.11;100.00;103173.72;10411268;28;20264;-67
2022/02/12 04:24:46;;;;;;;0.10;0.10;;;;;;;-2.11;100.00;103162.41;10443726;28;20021;-67
2022/02/12 04:29:46;;;;;;;0.03;0.03;;;;;;;-2.09;100.00;103158.88;10442690;28;20111;-67
2022/02/12 04:34:51;;;;;;;0.08;0.08;;;;;;;-2.05;100.00;103151.88;10412384;28;20018;-67
2022/02/12 04:39:52;;;;;;;0.00;0.00;;;;;;;-2.03;100.00;103147.50;10413389;28;20021;-67
2022/02/12 04:44:53;;;;;;;0.08;0.08;;;;;;;-2.01;100.00;103139.63;10411015;28;20560;-67
2022/02/12 04:49:53;;;;;;;0.10;0.10;;;;;;;-2.04;100.00;103148.38;10443337;28;20454;-67
2022/02/12 04:54:53;;;;;;;0.00;0.00;;;;;;;-2.08;100.00;103144.06;10439833;28;20032;-67
2022/02/12 04:59:54;;;;;;;0.00;0.00;;;;;;;-2.13;100.00;103138.91;10428553;28;20029;-67
2022/02/12 05:04:54;;;;;;;0.00;0.00;;;;;;;-2.16;100.00;103123.28;10421017;28;20028;-67
2022/02/12 05:09:54;;;;;;;0.10;0.10;;;;;;;-2.18;100.00;103113.75;10450334;28;20267;-67
2022/02/12 05:14:55;;;;;;;0.10;0.10;;;;;;;-2.24;100.00;103113.81;10419966;28;20029;-67
2022/02/12 05:19:55;;;;;;;0.10;0.10;;;;;;;-2.26;100.00;103120.84;10450006;28;20103;-67
2022/02/12 05:24:55;;;;;;;0.10;0.10;;;;;;;-2.28;100.00;103107.78;10411103;28;20056;-67
2022/02/12 05:29:56;;;;;;;0.10;0.10;;;;;;;-2.29;100.00;103106.94;10438810;28;20274;-67
2022/02/12 05:34:58;;;;;;;0.10;0.10;;;;;;;-2.36;100.00;103093.97;10433442;28;20306;-66
2022/02/12 05:39:58;;;;;;;0.10;0.10;;;;;;;-2.42;100.00;103105.34;10430546;28;20024;-67
2022/02/12 05:44:58;;;;;;;0.00;0.00;;;;;;;-2.41;100.00;103096.66;10432899;28;20021;-66
2022/02/12 05:49:59;;;;;;;0.20;0.20;;;;;;;-2.42;100.00;103109.72;10449409;28;20043;-67
2022/02/12 05:54:59;;;;;;;0.10;0.10;;;;;;;-2.42;100.00;103096.66;10449180;28;20251;-66
2022/02/12 05:59:59;;;;;;;0.00;0.00;;;;;;;-2.47;100.00;103078.47;10434458;28;20025;-67
2022/02/12 06:05:00;;;;;;;0.20;0.20;;;;;;;-2.50;100.00;103081.13;10434620;28;20014;-66
2022/02/12 06:10:00;;;;;;;0.08;0.08;;;;;;;-2.49;100.00;103071.53;10409091;28;20116;-67
2022/02/12 06:15:00;;;;;;;0.20;0.20;;;;;;;-2.44;100.00;103080.16;10430912;28;20025;-69
2022/02/12 06:20:02;;;;;;;0.10;0.10;;;;;;;-2.37;100.00;103074.84;10430940;28;20064;-69
2022/02/12 06:25:02;;;;;;;0.15;0.15;;;;;;;-2.31;100.00;103072.16;10431304;28;20028;-69
2022/02/12 06:30:04;;;;;;;0.10;0.10;;;;;;;-2.23;100.00;103073.81;10440301;28;20224;-69
2022/02/12 06:35:05;;;;;;;0.10;0.10;;;;;;;-2.22;100.00;103060.72;10440114;28;20032;-69
2022/02/12 06:40:05;;;;;;;0.00;0.00;;;;;;;-2.24;100.00;103062.50;10439384;28;20031;-69
2022/02/12 06:45:06;;;;;;;0.00;0.00;;;;;;;-2.20;100.00;103058.09;10440542;28;20025;-69
2022/02/12 06:50:07;;;;;;;0.00;0.00;;;;;;;-2.18;100.00;103056.28;10439199;28;20056;-69
2022/02/12 06:55:08;;;;;;;0.10;0.10;;;;;;;-2.15;100.00;103054.53;10436895;28;20013;-69
2022/02/12 07:00:09;;;;;;;0.00;0.00;;;;;;;-2.06;100.00;103062.22;10441648;28;20044;-69
2022/02/12 07:05:09;;;;;;;0.00;0.00;;;;;;;-2.01;100.00;103048.22;10438071;28;20083;-70
2022/02/12 07:10:09;;;;;;;0.10;0.10;;;;;;;-1.91;100.00;103052.44;10438652;28;20370;-69
2022/02/12 07:15:10;;;;;;;0.00;0.00;;;;;;;-1.76;100.00;103052.16;10435900;28;20017;-69
2022/02/12 07:20:12;;;;;;;0.00;0.00;;;;;;;-1.49;100.00;103053.44;10441800;28;20029;-69
2022/02/12 07:25:13;;;;;;;0.03;0.03;;;;;;;-1.01;100.00;103050.81;10437788;28;20128;-68
2022/02/12 07:30:15;;;;;;;0.10;0.10;;;;;;;-0.62;100.00;103050.91;10440239;28;20392;-68
2022/02/12 07:35:17;;;;;;;0.05;0.05;;;;;;;-0.44;100.00;103051.41;10438429;28;20159;-68
2022/02/12 07:40:19;;;;;;;0.00;0.00;;;;;;;-0.15;100.00;103053.34;10435811;28;20601;-69
2022/02/12 07:45:20;;;;;;;0.00;0.00;;;;;;;0.19;100.00;103042.94;10436133;28;20036;-69
2022/02/12 07:50:20;;;;;;;0.10;0.10;;;;;;;0.62;100.00;103049.72;10435848;28;20372;-68
2022/02/12 07:55:20;;;;;;;0.00;0.00;;;;;;;0.74;100.00;103036.28;10436061;28;20376;-69
2022/02/12 08:00:21;;;;;;;0.00;0.00;;;;;;;1.09;100.00;103029.19;10438579;28;20396;-68
2022/02/12 08:05:21;;;;;;;0.00;0.00;;;;;;;1.19;100.00;103033.25;10436687;28;20288;-68
2022/02/12 08:15:40;;;;;;;0.00;0.00;;;;;;;2.28;100.00;103021.97;10435087;28;20018;-68
2022/02/12 08:20:41;;;;;;;0.00;0.00;;;;;;;3.11;100.00;103026.91;10434636;28;20396;-68
2022/02/12 08:25:41;;;;;;;0.00;0.00;;;;;;;3.58;100.00;103027.78;10434471;28;20292;-68
2022/02/12 08:30:42;;;;;;;0.00;0.00;;;;;;;3.63;100.00;103023.16;10439373;28;20035;-68
2022/02/12 08:35:42;;;;;;;0.00;0.00;;;;;;;3.66;100.00;103022.19;10435711;28;20028;-68
2022/02/12 08:40:42;;;;;;;0.00;0.00;;;;;;;3.70;98.75;103012.41;10433697;28;20283;-68
2022/02/12 08:45:43;;;;;;;0.00;0.00;;;;;;;3.73;100.00;103007.84;10434814;28;20683;-68
2022/02/12 08:50:44;;;;;;;0.00;0.00;;;;;;;3.79;99.25;103009.38;10432786;28;20025;-67
2022/02/12 08:55:46;;;;;;;0.00;0.00;;;;;;;3.38;98.11;103007.47;10433780;28;20021;-68
2022/02/12 09:00:46;;;;;;;0.08;0.08;;;;;;;3.09;100.00;103015.59;10438317;28;20397;-68
2022/02/12 09:05:46;;;;;;;0.00;0.00;;;;;;;3.55;96.44;102996.28;10431144;28;20029;-68
2022/02/12 09:10:47;;;;;;;0.00;0.00;;;;;;;3.93;95.51;102999.13;10432690;28;20549;-66
2022/02/12 09:15:47;;;;;;;0.00;0.00;;;;;;;4.07;92.62;102986.25;10432865;28;20017;-68
2022/02/12 09:20:48;;;;;;;0.00;0.00;;;;;;;3.36;94.52;102974.19;10431937;28;20104;-67
2022/02/12 09:25:48;;;;;;;0.00;0.00;;;;;;;2.75;96.73;102984.41;10432726;28;20025;-68
2022/02/12 09:30:48;;;;;;;0.00;0.00;;;;;;;2.51;98.94;102979.09;10438869;28;20230;-67
2022/02/12 09:35:53;;;;;;;0.00;0.00;;;;;;;2.81;100.00;102973.63;10431392;28;20025;-67
2022/02/12 09:40:53;;;;;;;0.00;0.00;;;;;;;3.00;96.09;102965.94;10430457;28;20017;-67
2022/02/12 09:46:15;;;;;;;0.00;0.00;;;;;;;3.11;96.41;102955.81;10431917;28;20029;-67
2022/02/12 09:51:17;;;;;;;0.00;0.00;;;;;;;2.85;97.64;102962.06;10429454;28;20268;-67
2022/02/12 09:56:18;;;;;;;0.00;0.00;;;;;;;2.75;97.09;102939.66;10429773;28;20110;-67
2022/02/12 10:01:19;;;;;;;0.00;0.00;;;;;;;2.76;97.46;102947.47;10440138;28;20492;-67
2022/02/12 10:06:42;;;;;;;0.00;0.00;;;;;;;2.65;97.53;102953.16;10440061;28;20067;-68
2022/02/12 10:11:50;;;;;;;0.00;0.00;;;;;;;2.84;97.14;102941.94;10440796;28;20021;-68
2022/02/12 10:16:53;;;;;;;0.00;0.00;;;;;;;3.03;95.40;102937.72;10439451;28;20060;-67
2022/02/12 10:22:06;;;;;;;0.00;0.00;;;;;;;3.22;95.83;102939.63;10437905;28;20053;-67
2022/02/12 10:27:06;;;;;;;0.00;0.00;;;;;;;3.26;93.87;102930.66;10438103;28;20103;-67
2022/02/12 10:32:09;;;;;;;0.00;0.00;;;;;;;3.23;94.58;102920.25;10447191;28;20435;-67
2022/02/12 10:37:12;;;;;;;0.00;0.00;;;;;;;3.25;93.65;102919.28;10435197;28;20017;-67
2022/02/12 10:42:13;;;;;;;0.00;0.00;;;;;;;3.27;93.90;102909.56;10439303;28;20021;-68
2022/02/12 10:47:14;;;;;;;0.00;0.00;;;;;;;3.25;89.96;102910.53;10435288;28;20040;-67
2022/02/12 10:52:15;;;;;;;0.00;0.00;;;;;;;3.27;91.72;102893.75;10438771;28;20040;-68
2022/02/12 10:57:18;;;;;;;0.00;0.00;;;;;;;3.23;91.95;102886.00;10436328;28;20024;-67
2022/02/12 11:02:18;;;;;;;0.00;0.00;;;;;;;3.23;91.21;102871.09;10443095;28;20488;-67
2022/02/12 11:07:19;;;;;;;0.00;0.00;;;;;;;3.23;92.91;102862.31;10434580;28;20104;-67
2022/02/12 11:12:21;;;;;;;0.00;0.00;;;;;;;3.22;90.57;102857.97;10437643;28;20078;-67
2022/02/12 11:17:23;;;;;;;0.00;0.00;;;;;;;3.22;90.83;102845.66;10435648;28;20455;-68
2022/02/12 11:22:24;;;;;;;0.00;0.00;;;;;;;3.30;90.17;102837.47;10435291;28;20075;-69
2022/02/12 11:27:27;;;;;;;0.00;0.00;;;;;;;3.36;92.84;102824.88;10436208;28;20530;-68
2022/02/12 11:32:27;;;;;;;0.00;0.00;;;;;;;3.41;90.58;102814.16;10446057;28;20016;-68
2022/02/12 11:37:36;;;;;;;0.00;0.00;;;;;;;3.45;89.50;102794.66;10436033;28;20025;-69
2022/02/12 11:42:44;;;;;;;0.00;0.00;;;;;;;3.53;89.28;102795.19;10435126;28;20100;-68
2022/02/12 11:48:09;;;;;;;0.00;0.00;;;;;;;3.65;89.16;102774.53;10435317;28;20025;-69
2022/02/12 11:53:29;;;;;;;0.00;0.00;;;;;;;3.69;86.46;102778.72;10435763;28;20388;-69
2022/02/12 11:58:41;;;;;;;0.00;0.00;;;;;;;3.71;85.57;102766.34;10437256;28;20032;-70
2022/02/12 12:04:14;;;;;;;0.00;0.00;;;;;;;3.74;85.26;102771.47;10448636;28;20025;-70
2022/02/12 12:09:15;;;;;;;0.00;0.00;;;;;;;3.79;87.23;102759.81;10435819;28;20029;-69
2022/02/12 12:14:21;;;;;;;0.00;0.00;;;;;;;3.92;87.57;102730.25;10433777;28;20021;-69
2022/02/12 12:19:25;;;;;;;0.00;0.00;;;;;;;4.06;87.28;102731.34;10433365;28;20384;-70
2022/02/12 12:24:26;;;;;;;0.00;0.00;;;;;;;4.23;88.20;102716.53;10434540;28;20471;-70
2022/02/12 12:35:03;;;;;;;0.00;0.00;;;;;;;4.19;87.46;102717.56;10437338;28;20611;-69
2022/02/12 12:40:04;;;;;;;0.00;0.00;;;;;;;4.21;86.21;102699.91;10433066;28;20052;-70
2022/02/12 12:45:06;;;;;;;0.00;0.00;;;;;;;4.28;87.40;102688.16;10432890;28;20036;-69
2022/02/12 12:50:06;;;;;;;0.00;0.00;;;;;;;4.37;82.89;102693.00;10431970;28;20021;-70
2022/02/12 12:55:09;;;;;;;0.00;0.00;;;;;;;4.47;86.14;102678.41;10391233;22;20132;-69
2022/02/12 13:00:17;;;;;;;0.00;0.00;;;;;;;4.46;85.04;102660.03;10372674;28;20079;-69
2022/02/12 13:05:22;;;;;;;0.00;0.00;;;;;;;4.42;84.35;102659.31;10369580;28;20026;-70
2022/02/12 13:10:25;;;;;;;0.00;0.00;;;;;;;4.41;83.70;102639.13;10368524;28;20068;-69
2022/02/12 13:15:38;;;;;;;0.00;0.00;;;;;;;4.38;82.03;102647.19;10369202;28;20025;-69
2022/02/12 13:20:40;;;;;;;0.00;0.00;;;;;;;4.39;83.60;102629.56;10369377;28;20480;-67
2022/02/12 13:25:43;;;;;;;0.00;0.00;;;;;;;4.34;85.38;102626.31;10352151;28;20018;-68
2022/02/12 13:30:48;;;;;;;0.00;0.00;;;;;;;4.29;85.20;102608.06;10409552;28;20458;-68
2022/02/12 13:35:50;;;;;;;0.00;0.00;;;;;;;4.24;80.83;102610.06;10451173;28;20456;-75
2022/02/12 13:40:53;;;;;;;0.00;0.00;;;;;;;4.16;83.18;102589.38;10435716;28;20028;-65
2022/02/12 13:45:57;;;;;;;0.00;0.00;;;;;;;4.18;83.06;102586.63;10451112;28;20099;-68
2022/02/12 13:51:12;;;;;;;0.00;0.00;;;;;;;4.24;86.71;102575.78;10440899;28;20036;-68
2022/02/12 13:56:13;;;;;;;0.00;0.00;;;;;;;4.28;83.51;102565.00;10404719;28;20488;-66
2022/02/12 14:01:14;;;;;;;0.00;0.00;;;;;;;4.26;76.19;102568.66;10425558;28;20021;-64
2022/02/12 14:06:17;;;;;;;0.00;0.00;;;;;;;4.25;75.11;102573.09;10450391;28;20079;-67
2022/02/12 14:11:19;;;;;;;0.00;0.00;;;;;;;4.21;78.82;102562.75;10450559;28;20379;-68
2022/02/12 14:16:20;;;;;;;0.00;0.00;;;;;;;4.17;78.13;102563.84;10451179;28;20365;-70
2022/02/12 14:21:20;;;;;;;0.00;0.00;;;;;;;4.16;81.37;102548.91;10450171;28;20041;-67
2022/02/12 14:26:20;;;;;;;0.00;0.00;;;;;;;4.08;76.85;102526.44;10427924;28;20116;-69
2022/02/12 14:31:21;;;;;;;0.00;0.00;;;;;;;4.04;76.84;102516.97;10408808;28;20435;-65
2022/02/12 14:36:21;;;;;;;0.00;0.00;;;;;;;3.97;77.87;102507.63;10409457;28;20457;-67
2022/02/12 14:41:22;;;;;;;0.00;0.00;;;;;;;3.89;78.58;102511.56;10409201;28;20026;-66
2022/02/12 14:46:22;;;;;;;0.00;0.00;;;;;;;3.83;79.36;102496.91;10408741;28;20044;-72
2022/02/12 14:51:22;;;;;;;0.00;0.00;;;;;;;3.78;78.22;102488.38;10414812;28;20275;-65
2022/02/12 14:56:23;;;;;;;0.00;0.00;;;;;;;3.75;79.74;102477.97;10411926;28;20030;-70
2022/02/12 15:01:23;;;;;;;0.00;0.00;;;;;;;3.66;79.37;102474.00;10398443;28;20025;-71
2022/02/12 15:06:25;;;;;;;0.00;0.00;;;;;;;3.60;77.84;102474.31;10399626;28;20638;-68
2022/02/12 15:11:25;;;;;;;0.00;0.00;;;;;;;3.53;81.39;102465.84;10369677;28;20026;-71
2022/02/12 15:16:26;;;;;;;0.00;0.00;;;;;;;3.47;79.49;102465.28;10413068;28;20029;-69
2022/02/12 15:21:27;;;;;;;0.00;0.00;;;;;;;3.40;82.36;102452.41;10383495;28;20264;-69
2022/02/12 15:26:27;;;;;;;0.00;0.00;;;;;;;3.31;79.78;102441.44;10387562;28;20048;-69
2022/02/12 15:36:52;;;;;;;0.00;0.00;;;;;;;3.21;80.92;102429.66;10472962;28;20455;-68
2022/02/12 15:41:52;;;;;;;0.00;0.00;;;;;;;3.16;81.30;102412.28;10476368;28;20093;-66
2022/02/12 15:46:53;;;;;;;0.00;0.00;;;;;;;3.12;79.83;102400.19;10472683;28;20100;-66
2022/02/12 15:51:53;;;;;;;0.00;0.00;;;;;;;3.05;80.09;102392.63;10492520;28;20017;-66
2022/02/12 15:56:54;;;;;;;0.00;0.00;;;;;;;2.97;80.98;102385.13;10459288;28;20275;-66
2022/02/12 16:01:54;;;;;;;0.00;0.00;;;;;;;2.89;82.59;102374.94;10461843;28;20017;-66
2022/02/12 16:06:55;;;;;;;0.00;0.00;;;;;;;2.84;82.35;102381.34;10450455;28;20028;-66
2022/02/12 16:11:55;;;;;;;0.00;0.00;;;;;;;2.75;83.79;102382.63;10450440;28;20028;-67
2022/02/12 16:16:55;;;;;;;0.00;0.00;;;;;;;2.63;84.79;102378.78;10448908;28;20451;-67
2022/02/12 16:21:56;;;;;;;0.00;0.00;;;;;;;2.55;86.56;102377.41;10449565;28;20267;-66
2022/02/12 16:26:56;;;;;;;0.00;0.00;;;;;;;2.42;86.64;102371.84;10453726;28;20112;-68
2022/02/12 16:31:58;;;;;;;0.00;0.00;;;;;;;2.32;87.69;102378.44;10451945;28;20088;-66
2022/02/12 16:36:58;;;;;;;0.00;0.00;;;;;;;2.27;88.10;102376.03;10446862;28;20483;-66
2022/02/12 16:41:59;;;;;;;0.00;0.00;;;;;;;2.16;89.18;102376.47;10447240;28;20028;-67
2022/02/12 16:47:01;;;;;;;0.00;0.00;;;;;;;2.04;90.89;102366.50;10428663;28;20025;-65
2022/02/12 16:52:01;;;;;;;0.00;0.00;;;;;;;1.90;91.37;102355.72;10461256;28;20744;-68
2022/02/12 16:57:04;;;;;;;0.00;0.00;;;;;;;1.76;91.91;102358.94;10446825;28;20086;-68
2022/02/12 17:02:05;;;;;;;0.00;0.00;;;;;;;1.64;92.76;102352.44;10439662;28;20388;-67
2022/02/12 17:07:05;;;;;;;0.00;0.00;;;;;;;1.56;93.51;102359.75;10425633;28;20025;-67
2022/02/12 17:12:06;;;;;;;0.00;0.00;;;;;;;1.47;94.19;102366.25;10419239;28;20537;-66
2022/02/12 17:17:06;;;;;;;0.00;0.00;;;;;;;1.42;94.26;102354.22;10418018;28;20037;-65
2022/02/12 17:22:07;;;;;;;0.00;0.00;;;;;;;1.38;95.28;102352.66;10417756;28;20383;-66
2022/02/12 17:27:07;;;;;;;0.10;0.10;;;;;;;1.29;95.97;102353.88;10425137;28;20026;-68
2022/02/12 17:32:08;;;;;;;0.00;0.00;;;;;;;1.20;97.24;102346.38;10440568;28;20032;-67
2022/02/12 17:37:08;;;;;;;0.00;0.00;;;;;;;1.13;99.21;102345.75;10459348;28;20267;-67
2022/02/12 17:42:09;;;;;;;0.00;0.00;;;;;;;1.10;100.00;102338.00;10457790;28;20075;-66
2022/02/12 17:47:09;;;;;;;0.00;0.00;;;;;;;1.03;100.00;102319.03;10457152;28;20505;-65
2022/02/12 17:52:10;;;;;;;0.00;0.00;;;;;;;0.97;100.00;102321.91;10458243;28;20108;-65
2022/02/12 17:57:14;;;;;;;0.00;0.00;;;;;;;0.93;100.00;102333.41;10439089;28;20028;-66
2022/02/12 18:02:16;;;;;;;0.00;0.00;;;;;;;0.88;100.00;102333.59;10420297;28;20025;-67
2022/02/12 18:07:17;;;;;;;0.00;0.00;;;;;;;0.88;100.00;102330.97;10417172;28;20041;-66
2022/02/12 18:12:17;;;;;;;0.00;0.00;;;;;;;0.84;100.00;102333.78;10416391;28;20067;-65
2022/02/12 18:17:18;;;;;;;0.00;0.00;;;;;;;0.83;100.00;102317.19;10416501;28;20034;-66
2022/02/12 18:22:18;;;;;;;0.10;0.10;;;;;;;0.82;100.00;102320.72;10416536;28;20017;-66
2022/02/12 18:27:19;;;;;;;0.00;0.00;;;;;;;0.81;100.00;102312.91;10420028;28;20264;-65
2022/02/12 18:32:20;;;;;;;0.00;0.00;;;;;;;0.77;100.00;102317.44;10454327;28;20068;-66
2022/02/12 18:37:20;;;;;;;0.00;0.00;;;;;;;0.68;100.00;102296.81;10442893;28;20048;-66
2022/02/12 18:42:22;;;;;;;0.00;0.00;;;;;;;0.61;100.00;102279.59;10428486;28;20448;-66
2022/02/12 18:47:22;;;;;;;0.00;0.00;;;;;;;0.58;100.00;102269.22;10448831;28;20035;-64
2022/02/12 18:52:22;;;;;;;0.00;0.00;;;;;;;0.52;100.00;102272.94;10458141;28;20027;-67
2022/02/12 18:57:23;;;;;;;0.00;0.00;;;;;;;0.41;100.00;102265.50;10438399;28;20025;-66
2022/02/12 19:02:24;;;;;;;0.00;0.00;;;;;;;0.33;100.00;102262.31;10416127;28;20270;-67
2022/02/12 19:07:25;;;;;;;0.10;0.10;;;;;;;0.30;100.00;102246.69;10415535;28;20283;-65
2022/02/12 19:12:27;;;;;;;0.10;0.10;;;;;;;0.33;100.00;102241.34;10414934;28;20028;-66
2022/02/12 19:17:27;;;;;;;0.00;0.00;;;;;;;0.38;100.00;102225.44;10412733;28;20538;-65
2022/02/12 19:22:28;;;;;;;0.00;0.00;;;;;;;0.44;100.00;102228.66;10431599;28;20083;-65
2022/02/12 19:27:28;;;;;;;0.00;0.00;;;;;;;0.46;100.00;102215.50;10425662;28;21107;-64
2022/02/12 19:32:29;;;;;;;0.00;0.00;;;;;;;0.41;100.00;102210.44;10417075;28;20033;-66
2022/02/12 19:37:30;;;;;;;0.00;0.00;;;;;;;0.43;100.00;102213.00;10416016;28;20025;-65
2022/02/12 19:42:30;;;;;;;0.00;0.00;;;;;;;0.42;100.00;102200.81;10414163;28;20380;-66
2022/02/12 19:47:30;;;;;;;0.00;0.00;;;;;;;0.39;100.00;102195.69;10413879;28;20536;-65
2022/02/12 19:52:35;;;;;;;0.05;0.05;;;;;;;0.38;100.00;102189.59;10419093;28;20021;-64
2022/02/12 19:57:35;;;;;;;0.10;0.10;;;;;;;0.34;100.00;102177.50;10437494;28;20392;-65
2022/02/12 20:02:36;;;;;;;0.10;0.10;;;;;;;0.41;100.00;102159.78;10413797;28;20104;-66
2022/02/12 20:07:37;;;;;;;0.00;0.00;;;;;;;0.40;100.00;102156.28;10413858;28;20627;-65
2022/02/12 20:12:38;;;;;;;0.00;0.00;;;;;;;0.39;100.00;102165.06;10414717;28;20084;-66
2022/02/12 20:17:40;;;;;;;0.00;0.00;;;;;;;0.39;100.00;102151.13;10412087;28;20444;-63
2022/02/12 20:22:41;;;;;;;0.00;0.00;;;;;;;0.34;100.00;102143.44;10429104;28;20081;-66
2022/02/12 20:27:41;;;;;;;0.00;0.00;;;;;;;0.28;100.00;102141.06;10424106;28;20044;-66
2022/02/12 20:32:42;;;;;;;0.00;0.00;;;;;;;0.21;100.00;102124.72;10421543;28;20036;-65
2022/02/12 20:37:42;;;;;;;0.00;0.00;;;;;;;0.22;100.00;102113.31;10437388;28;20071;-66
2022/02/12 20:42:43;;;;;;;0.00;0.00;;;;;;;0.21;100.00;102097.69;10430539;28;20018;-66
2022/02/12 20:47:43;;;;;;;0.00;0.00;;;;;;;0.20;100.00;102082.84;10420675;28;20260;-66
2022/02/12 20:52:44;;;;;;;0.10;0.10;;;;;;;0.17;100.00;102075.97;10430958;28;20017;-65
2022/02/12 20:57:44;;;;;;;0.03;0.03;;;;;;;0.20;100.00;102075.88;10420835;28;20468;-66
2022/02/12 21:02:45;;;;;;;0.00;0.00;;;;;;;0.21;100.00;102072.31;10420077;28;20013;-65
2022/02/12 21:07:48;;;;;;;0.10;0.10;;;;;;;0.19;100.00;102053.19;10445603;28;20013;-65
2022/02/12 21:12:48;;;;;;;0.00;0.00;;;;;;;0.17;100.00;102049.75;10457316;28;20526;-66
2022/02/12 21:17:48;;;;;;;0.00;0.00;;;;;;;0.15;100.00;102035.88;10461063;28;20021;-65
2022/02/12 21:22:49;;;;;;;0.00;0.00;;;;;;;0.18;100.00;102024.44;10436609;28;20017;-65
2022/02/12 21:27:49;;;;;;;0.00;0.00;;;;;;;0.19;100.00;102026.13;10436299;28;20480;-65
2022/02/12 21:32:49;;;;;;;0.00;0.00;;;;;;;0.17;100.00;102022.72;10460463;28;20408;-66
2022/02/12 21:37:50;;;;;;;0.10;0.10;;;;;;;0.16;100.00;102010.53;10421414;28;20033;-65
2022/02/12 21:42:50;;;;;;;0.10;0.10;;;;;;;0.12;100.00;102008.97;10420072;28;20440;-65
2022/02/12 21:47:50;;;;;;;0.00;0.00;;;;;;;0.10;100.00;102005.53;10433134;28;20270;-65
2022/02/12 21:52:51;;;;;;;0.00;0.00;;;;;;;0.06;100.00;102002.22;10421726;28;20363;-64
2022/02/12 21:57:51;;;;;;;0.00;0.00;;;;;;;0.07;100.00;101982.09;10417063;28;20067;-65
2022/02/12 22:02:51;;;;;;;0.00;0.00;;;;;;;0.08;100.00;101989.03;10418672;28;20021;-64
2022/02/12 22:07:52;;;;;;;0.00;0.00;;;;;;;0.04;100.00;101982.22;10418263;28;20465;-64
2022/02/12 22:12:53;;;;;;;0.00;0.00;;;;;;;0.01;100.00;101992.81;10445840;28;20282;-66
2022/02/12 22:17:53;;;;;;;0.00;0.00;;;;;;;-0.04;100.00;101978.13;10458737;28;20535;-66
2022/02/12 22:22:54;;;;;;;0.00;0.00;;;;;;;-0.04;100.00;101979.91;10416848;28;20017;-66
2022/02/12 22:27:54;;;;;;;0.00;0.00;;;;;;;-0.08;100.00;101980.97;10416364;28;20035;-66
2022/02/12 22:32:54;;;;;;;0.00;0.00;;;;;;;-0.13;100.00;101967.19;10428492;28;20120;-66
2022/02/12 22:37:55;;;;;;;0.00;0.00;;;;;;;-0.19;100.00;101964.81;10416992;28;20078;-66
2022/02/12 22:42:55;;;;;;;0.00;0.00;;;;;;;-0.23;100.00;101951.00;10416199;28;20013;-64
2022/02/12 22:47:55;;;;;;;0.00;0.00;;;;;;;-0.25;100.00;101960.69;10417563;28;20263;-65
2022/02/12 22:52:56;;;;;;;0.00;0.00;;;;;;;-0.26;100.00;101951.13;10419178;28;20028;-66
2022/02/12 22:57:56;;;;;;;0.00;0.00;;;;;;;-0.23;100.00;101937.91;10416739;28;20270;-66
2022/02/12 23:02:56;;;;;;;0.10;0.10;;;;;;;-0.14;100.00;101919.22;10415306;28;20014;-65
2022/02/12 23:07:57;;;;;;;0.00;0.00;;;;;;;-0.02;100.00;101918.69;10415575;28;20044;-65
2022/02/12 23:12:57;;;;;;;0.10;0.10;;;;;;;0.04;100.00;101911.50;10416306;28;20014;-66
2022/02/12 23:17:57;;;;;;;0.00;0.00;;;;;;;0.05;100.00;101914.03;10410627;28;20035;-66
2022/02/12 23:22:58;;;;;;;0.10;0.10;;;;;;;0.02;100.00;101911.53;10476259;22;20036;-64
2022/02/12 23:27:58;;;;;;;0.00;0.00;;;;;;;0.04;100.00;101895.78;10489162;28;20025;-63